sensor_id;sensor_type;location;lat;lon;timestamp;pressure;altitude;pressure_sealevel;temperature;humidity
14273;BME280;7220;49.450;11.052;2024-03-17T00:02:25;98897.13;;;7.66;83.67
14273;BME280;7220;49.450;11.052;2024-03-17T00:06:25;98914.84;;;7.64;83.27
14273;BME280;7220;49.450;11.052;2024-03-17T00:10:26;98911.38;;;7.62;84.03
14273;BME280;7220;49.450;11.052;2024-03-17T00:14:26;98910.47;;;7.61;83.21
14273;BME280;7220;49.450;11.052;2024-03-17T00:18:28;98909.72;;;7.57;83.66
14273;BME280;7220;49.450;11.052;2024-03-17T00:22:28;98913.31;;;7.55;84.07
14273;BME280;7220;49.450;11.052;2024-03-17T00:26:29;98915.16;;;7.53;84.01
14273;BME280;7220;49.450;11.052;2024-03-17T00:30:29;98914.34;;;7.51;84.53
14273;BME280;7220;49.450;11.052;2024-03-17T00:34:31;98928.56;;;7.47;84.37
14273;BME280;7220;49.450;11.052;2024-03-17T00:38:31;98932.09;;;7.46;83.92
14273;BME280;7220;49.450;11.052;2024-03-17T00:42:32;98921.72;;;7.39;82.93
14273;BME280;7220;49.450;11.052;2024-03-17T00:46:32;98923.56;;;7.36;83.60
14273;BME280;7220;49.450;11.052;2024-03-17T00:50:33;98924.53;;;7.33;83.49
14273;BME280;7220;49.450;11.052;2024-03-17T00:54:33;98908.75;;;7.30;83.84
14273;BME280;7220;49.450;11.052;2024-03-17T00:58:34;98918.53;;;7.28;84.22
14273;BME280;7220;49.450;11.052;2024-03-17T01:02:34;98914.16;;;7.27;83.56
14273;BME280;7220;49.450;11.052;2024-03-17T01:06:35;98922.06;;;7.27;85.21
14273;BME280;7220;49.450;11.052;2024-03-17T01:10:40;98909.75;;;7.26;85.32
14273;BME280;7220;49.450;11.052;2024-03-17T01:14:40;98911.59;;;7.24;85.83
14273;BME280;7220;49.450;11.052;2024-03-17T01:18:41;98916.97;;;7.21;86.65
14273;BME280;7220;49.450;11.052;2024-03-17T01:22:44;98920.53;;;7.20;89.03
14273;BME280;7220;49.450;11.052;2024-03-17T01:26:44;98915.31;;;7.17;88.44
14273;BME280;7220;49.450;11.052;2024-03-17T01:30:45;98903.00;;;7.16;90.92
14273;BME280;7220;49.450;11.052;2024-03-17T01:34:47;98899.53;;;7.14;91.28
14273;BME280;7220;49.450;11.052;2024-03-17T01:38:49;98889.06;;;7.10;91.35
14273;BME280;7220;49.450;11.052;2024-03-17T01:42:50;98894.28;;;7.12;91.61
14273;BME280;7220;49.450;11.052;2024-03-17T01:46:50;98881.97;;;7.13;92.51
14273;BME280;7220;49.450;11.052;2024-03-17T01:50:53;98886.38;;;7.12;92.66
14273;BME280;7220;49.450;11.052;2024-03-17T01:54:55;98881.25;;;7.06;93.99
14273;BME280;7220;49.450;11.052;2024-03-17T01:58:56;98884.81;;;7.05;94.32
14273;BME280;7220;49.450;11.052;2024-03-17T02:02:58;98886.66;;;7.01;93.55
14273;BME280;7220;49.450;11.052;2024-03-17T02:06:58;98878.94;;;6.95;93.41
14273;BME280;7220;49.450;11.052;2024-03-17T02:10:59;98867.53;;;6.93;95.87
14273;BME280;7220;49.450;11.052;2024-03-17T02:15:00;98860.56;;;6.90;95.98
14273;BME280;7220;49.450;11.052;2024-03-17T02:19:01;98858.75;;;6.91;95.93
14273;BME280;7220;49.450;11.052;2024-03-17T02:23:01;98863.31;;;6.86;95.59
14273;BME280;7220;49.450;11.052;2024-03-17T02:27:01;98852.94;;;6.79;95.00
14273;BME280;7220;49.450;11.052;2024-03-17T02:31:02;98850.44;;;6.73;95.28
14273;BME280;7220;49.450;11.052;2024-03-17T02:35:03;98856.72;;;6.69;96.24
14273;BME280;7220;49.450;11.052;2024-03-17T02:39:05;98845.34;;;6.67;96.62
14273;BME280;7220;49.450;11.052;2024-03-17T02:43:24;98862.22;;;6.61;96.83
14273;BME280;7220;49.450;11.052;2024-03-17T02:47:24;98856.13;;;6.58;97.64
14273;BME280;7220;49.450;11.052;2024-03-17T02:51:25;98858.88;;;6.55;98.51
14273;BME280;7220;49.450;11.052;2024-03-17T02:55:25;98849.22;;;6.54;99.07
14273;BME280;7220;49.450;11.052;2024-03-17T02:59:26;98846.66;;;6.51;99.22
14273;BME280;7220;49.450;11.052;2024-03-17T03:03:26;98846.75;;;6.47;98.83
14273;BME280;7220;49.450;11.052;2024-03-17T03:07:27;98853.06;;;6.42;99.32
14273;BME280;7220;49.450;11.052;2024-03-17T03:11:28;98862.72;;;6.41;99.93
14273;BME280;7220;49.450;11.052;2024-03-17T03:15:31;98855.97;;;6.31;100.00
14273;BME280;7220;49.450;11.052;2024-03-17T03:19:33;98863.06;;;6.29;100.00
14273;BME280;7220;49.450;11.052;2024-03-17T03:23:34;98874.56;;;6.26;100.00
14273;BME280;7220;49.450;11.052;2024-03-17T03:27:34;98873.78;;;6.23;100.00
14273;BME280;7220;49.450;11.052;2024-03-17T03:31:34;98873.94;;;6.17;100.00
14273;BME280;7220;49.450;11.052;2024-03-17T03:35:35;98874.00;;;6.13;100.00
14273;BME280;7220;49.450;11.052;2024-03-17T03:39:35;98862.66;;;6.10;100.00
14273;BME280;7220;49.450;11.052;2024-03-17T03:43:36;98868.00;;;6.07;100.00
14273;BME280;7220;49.450;11.052;2024-03-17T03:47:37;98865.41;;;6.05;100.00
14273;BME280;7220;49.450;11.052;2024-03-17T03:51:37;98868.16;;;6.00;100.00
14273;BME280;7220;49.450;11.052;2024-03-17T03:55:38;98865.53;;;6.00;100.00
14273;BME280;7220;49.450;11.052;2024-03-17T03:59:38;98861.09;;;6.01;100.00
14273;BME280;7220;49.450;11.052;2024-03-17T04:03:39;98863.78;;;5.99;100.00
14273;BME280;7220;49.450;11.052;2024-03-17T04:07:39;98868.19;;;5.97;100.00
14273;BME280;7220;49.450;11.052;2024-03-17T04:11:40;98866.44;;;5.98;100.00
14273;BME280;7220;49.450;11.052;2024-03-17T04:15:41;98869.13;;;5.95;100.00
14273;BME280;7220;49.450;11.052;2024-03-17T04:19:41;98861.22;;;5.96;100.00
14273;BME280;7220;49.450;11.052;2024-03-17T04:23:42;98852.47;;;5.94;100.00
14273;BME280;7220;49.450;11.052;2024-03-17T04:27:42;98854.09;;;5.98;100.00
14273;BME280;7220;49.450;11.052;2024-03-17T04:31:43;98865.56;;;5.99;100.00
14273;BME280;7220;49.450;11.052;2024-03-17T04:35:48;98860.28;;;5.99;100.00
14273;BME280;7220;49.450;11.052;2024-03-17T04:39:49;98855.06;;;5.96;100.00
14273;BME280;7220;49.450;11.052;2024-03-17T04:43:49;98864.69;;;5.97;100.00
14273;BME280;7220;49.450;11.052;2024-03-17T04:47:50;98856.84;;;5.94;100.00
14273;BME280;7220;49.450;11.052;2024-03-17T04:51:51;98858.69;;;5.92;100.00
14273;BME280;7220;49.450;11.052;2024-03-17T04:55:59;98862.38;;;5.84;100.00
14273;BME280;7220;49.450;11.052;2024-03-17T05:00:00;98856.97;;;5.89;100.00
14273;BME280;7220;49.450;11.052;2024-03-17T05:04:00;98845.56;;;5.89;100.00
14273;BME280;7220;49.450;11.052;2024-03-17T05:08:03;98857.81;;;5.91;100.00
14273;BME280;7220;49.450;11.052;2024-03-17T05:12:04;98862.22;;;5.91;100.00
14273;BME280;7220;49.450;11.052;2024-03-17T05:16:04;98860.47;;;5.90;100.00
14273;BME280;7220;49.450;11.052;2024-03-17T05:20:05;98863.16;;;5.88;100.00
14273;BME280;7220;49.450;11.052;2024-03-17T05:24:08;98868.41;;;5.90;100.00
14273;BME280;7220;49.450;11.052;2024-03-17T05:28:08;98880.75;;;5.88;100.00
14273;BME280;7220;49.450;11.052;2024-03-17T05:32:09;98872.03;;;5.84;100.00
14273;BME280;7220;49.450;11.052;2024-03-17T05:36:09;98884.28;;;5.87;100.00
14273;BME280;7220;49.450;11.052;2024-03-17T05:40:10;98875.56;;;5.84;100.00
14273;BME280;7220;49.450;11.052;2024-03-17T05:44:15;98878.16;;;5.86;100.00
14273;BME280;7220;49.450;11.052;2024-03-17T05:48:16;98885.06;;;5.92;100.00
14273;BME280;7220;49.450;11.052;2024-03-17T05:52:16;98888.50;;;5.94;100.00
14273;BME280;7220;49.450;11.052;2024-03-17T05:56:16;98877.97;;;5.94;100.00
14273;BME280;7220;49.450;11.052;2024-03-17T06:00:17;98890.25;;;5.95;100.00
14273;BME280;7220;49.450;11.052;2024-03-17T06:04:17;98892.88;;;5.96;100.00
14273;BME280;7220;49.450;11.052;2024-03-17T06:08:18;98896.41;;;5.95;100.00
14273;BME280;7220;49.450;11.052;2024-03-17T06:12:18;98907.78;;;5.99;100.00
14273;BME280;7220;49.450;11.052;2024-03-17T06:16:19;98891.00;;;6.02;100.00
14273;BME280;7220;49.450;11.052;2024-03-17T06:20:21;98885.72;;;6.02;100.00
14273;BME280;7220;49.450;11.052;2024-03-17T06:24:23;98893.53;;;6.06;100.00
14273;BME280;7220;49.450;11.052;2024-03-17T06:28:24;98895.19;;;6.10;100.00
14273;BME280;7220;49.450;11.052;2024-03-17T06:32:26;98891.59;;;6.14;100.00
14273;BME280;7220;49.450;11.052;2024-03-17T06:36:26;98888.84;;;6.19;100.00
14273;BME280;7220;49.450;11.052;2024-03-17T06:40:27;98886.03;;;6.25;100.00
14273;BME280;7220;49.450;11.052;2024-03-17T06:44:28;98886.88;;;6.26;100.00
14273;BME280;7220;49.450;11.052;2024-03-17T06:48:30;98889.34;;;6.34;100.00
14273;BME280;7220;49.450;11.052;2024-03-17T06:52:31;98877.78;;;6.38;100.00
14273;BME280;7220;49.450;11.052;2024-03-17T06:56:31;98890.75;;;6.49;100.00
14273;BME280;7220;49.450;11.052;2024-03-17T07:00:32;98876.47;;;6.54;100.00
14273;BME280;7220;49.450;11.052;2024-03-17T07:04:35;98870.00;;;6.66;100.00
14273;BME280;7220;49.450;11.052;2024-03-17T07:08:36;98883.06;;;6.72;100.00
14273;BME280;7220;49.450;11.052;2024-03-17T07:12:41;98873.16;;;6.81;100.00
14273;BME280;7220;49.450;11.052;2024-03-17T07:16:42;98880.88;;;6.88;100.00
14273;BME280;7220;49.450;11.052;2024-03-17T07:20:42;98880.66;;;6.96;100.00
14273;BME280;7220;49.450;11.052;2024-03-17T07:24:42;98862.97;;;6.98;100.00
14273;BME280;7220;49.450;11.052;2024-03-17T07:28:44;98877.59;;;7.10;100.00
14273;BME280;7220;49.450;11.052;2024-03-17T07:32:45;98880.13;;;7.15;100.00
14273;BME280;7220;49.450;11.052;2024-03-17T07:36:45;98881.66;;;7.22;100.00
14273;BME280;7220;49.450;11.052;2024-03-17T07:40:56;98865.66;;;7.28;100.00
14273;BME280;7220;49.450;11.052;2024-03-17T07:44:57;98854.06;;;7.32;100.00
14273;BME280;7220;49.450;11.052;2024-03-17T07:48:58;98859.97;;;7.40;100.00
14273;BME280;7220;49.450;11.052;2024-03-17T07:52:58;98862.41;;;7.48;100.00
14273;BME280;7220;49.450;11.052;2024-03-17T07:56:59;98857.06;;;7.50;100.00
14273;BME280;7220;49.450;11.052;2024-03-17T08:01:00;98855.06;;;7.58;100.00
14273;BME280;7220;49.450;11.052;2024-03-17T08:05:01;98854.91;;;7.63;100.00
14273;BME280;7220;49.450;11.052;2024-03-17T08:09:01;98852.00;;;7.70;100.00
14273;BME280;7220;49.450;11.052;2024-03-17T08:13:02;98852.53;;;7.82;100.00
14273;BME280;7220;49.450;11.052;2024-03-17T08:17:03;98848.06;;;7.84;100.00
14273;BME280;7220;49.450;11.052;2024-03-17T08:21:04;98849.69;;;7.88;100.00
14273;BME280;7220;49.450;11.052;2024-03-17T08:25:06;98854.84;;;7.93;100.00
14273;BME280;7220;49.450;11.052;2024-03-17T08:29:07;98842.44;;;7.95;100.00
14273;BME280;7220;49.450;11.052;2024-03-17T08:33:07;98834.34;;;7.99;100.00
14273;BME280;7220;49.450;11.052;2024-03-17T08:37:09;98838.59;;;8.03;100.00
14273;BME280;7220;49.450;11.052;2024-03-17T08:41:09;98830.41;;;8.11;100.00
14273;BME280;7220;49.450;11.052;2024-03-17T08:45:11;98829.34;;;8.17;99.33
14273;BME280;7220;49.450;11.052;2024-03-17T08:49:12;98841.47;;;8.24;97.31
14273;BME280;7220;49.450;11.052;2024-03-17T08:53:13;98825.38;;;8.30;97.19
14273;BME280;7220;49.450;11.052;2024-03-17T08:57:14;98840.13;;;8.37;96.37
14273;BME280;7220;49.450;11.052;2024-03-17T09:01:15;98830.91;;;8.49;95.96
14273;BME280;7220;49.450;11.052;2024-03-17T09:05:16;98816.59;;;8.55;94.95
14273;BME280;7220;49.450;11.052;2024-03-17T09:09:17;98823.19;;;8.68;93.45
14273;BME280;7220;49.450;11.052;2024-03-17T09:13:21;98826.41;;;8.77;91.68
14273;BME280;7220;49.450;11.052;2024-03-17T09:17:23;98824.34;;;8.85;91.12
14273;BME280;7220;49.450;11.052;2024-03-17T09:21:24;98820.63;;;8.91;83.59
14273;BME280;7220;49.450;11.052;2024-03-17T09:25:24;98823.78;;;9.00;81.38
14273;BME280;7220;49.450;11.052;2024-03-17T09:29:25;98824.25;;;9.12;78.83
14273;BME280;7220;49.450;11.052;2024-03-17T09:33:28;98813.06;;;9.27;78.28
14273;BME280;7220;49.450;11.052;2024-03-17T09:37:29;98810.72;;;9.42;75.73
14273;BME280;7220;49.450;11.052;2024-03-17T09:41:31;98803.97;;;9.57;74.66
14273;BME280;7220;49.450;11.052;2024-03-17T09:45:31;98793.47;;;9.76;74.75
14273;BME280;7220;49.450;11.052;2024-03-17T09:49:34;98789.47;;;9.86;74.81
14273;BME280;7220;49.450;11.052;2024-03-17T09:53:34;98783.69;;;9.99;75.24
14273;BME280;7220;49.450;11.052;2024-03-17T09:57:36;98776.09;;;10.10;73.87
14273;BME280;7220;49.450;11.052;2024-03-17T10:01:36;98787.03;;;10.24;72.21
14273;BME280;7220;49.450;11.052;2024-03-17T10:05:37;98788.25;;;10.38;71.93
14273;BME280;7220;49.450;11.052;2024-03-17T10:09:37;98790.34;;;10.50;71.69
14273;BME280;7220;49.450;11.052;2024-03-17T10:13:39;98783.88;;;10.57;70.72
14273;BME280;7220;49.450;11.052;2024-03-17T10:17:40;98784.50;;;10.63;68.80
14273;BME280;7220;49.450;11.052;2024-03-17T10:21:45;98785.59;;;10.78;70.49
14273;BME280;7220;49.450;11.052;2024-03-17T10:25:48;98776.78;;;10.96;69.96
14273;BME280;7220;49.450;11.052;2024-03-17T10:29:49;98777.19;;;11.08;67.81
14273;BME280;7220;49.450;11.052;2024-03-17T10:34:01;98770.97;;;11.26;67.56
14273;BME280;7220;49.450;11.052;2024-03-17T10:38:02;98764.50;;;11.32;66.94
14273;BME280;7220;49.450;11.052;2024-03-17T10:42:05;98766.28;;;11.50;67.76
14273;BME280;7220;49.450;11.052;2024-03-17T10:46:07;98769.97;;;11.48;68.74
14273;BME280;7220;49.450;11.052;2024-03-17T10:50:15;98775.91;;;11.53;67.41
14273;BME280;7220;49.450;11.052;2024-03-17T10:54:23;98767.56;;;11.61;67.31
14273;BME280;7220;49.450;11.052;2024-03-17T10:58:36;98751.13;;;11.70;68.09
14273;BME280;7220;49.450;11.052;2024-03-17T11:02:40;98753.06;;;11.86;67.46
14273;BME280;7220;49.450;11.052;2024-03-17T11:06:41;98744.59;;;12.12;66.95
14273;BME280;7220;49.450;11.052;2024-03-17T11:10:49;98736.84;;;12.25;66.71
14273;BME280;7220;49.450;11.052;2024-03-17T11:14:49;98749.16;;;12.28;65.98
14273;BME280;7220;49.450;11.052;2024-03-17T11:18:50;98746.00;;;12.37;64.74
14273;BME280;7220;49.450;11.052;2024-03-17T11:22:52;98751.25;;;12.39;65.02
14273;BME280;7220;49.450;11.052;2024-03-17T11:26:53;98746.94;;;12.36;64.68
14273;BME280;7220;49.450;11.052;2024-03-17T11:30:53;98752.03;;;12.41;64.32
14273;BME280;7220;49.450;11.052;2024-03-17T11:35:13;98743.78;;;12.45;64.80
14273;BME280;7220;49.450;11.052;2024-03-17T11:39:14;98734.53;;;12.53;64.70
14273;BME280;7220;49.450;11.052;2024-03-17T11:43:21;98734.25;;;12.75;63.63
14273;BME280;7220;49.450;11.052;2024-03-17T11:47:32;98715.72;;;13.37;63.29
14273;BME280;7220;49.450;11.052;2024-03-17T11:51:34;98713.97;;;13.36;60.88
14273;BME280;7220;49.450;11.052;2024-03-17T11:55:34;98704.84;;;13.56;61.69
14273;BME280;7220;49.450;11.052;2024-03-17T11:59:35;98718.84;;;14.07;61.26
14273;BME280;7220;49.450;11.052;2024-03-17T12:03:38;98696.00;;;14.75;62.14
14273;BME280;7220;49.450;11.052;2024-03-17T12:07:43;98681.53;;;15.06;58.77
14273;BME280;7220;49.450;11.052;2024-03-17T12:11:43;98689.13;;;15.27;54.78
14273;BME280;7220;49.450;11.052;2024-03-17T12:15:44;98691.34;;;15.75;57.09
14273;BME280;7220;49.450;11.052;2024-03-17T12:19:46;98696.81;;;15.73;54.00
14273;BME280;7220;49.450;11.052;2024-03-17T12:23:47;98679.03;;;16.13;54.05
14273;BME280;7220;49.450;11.052;2024-03-17T12:27:48;98664.47;;;16.80;54.48
14273;BME280;7220;49.450;11.052;2024-03-17T12:31:50;98667.53;;;17.25;50.91
14273;BME280;7220;49.450;11.052;2024-03-17T12:35:51;98656.19;;;17.33;51.56
14273;BME280;7220;49.450;11.052;2024-03-17T12:39:52;98658.25;;;17.05;48.78
14273;BME280;7220;49.450;11.052;2024-03-17T12:43:54;98643.75;;;16.82;49.29
14273;BME280;7220;49.450;11.052;2024-03-17T12:47:54;98638.72;;;16.77;48.96
14273;BME280;7220;49.450;11.052;2024-03-17T12:51:56;98642.91;;;16.81;48.92
14273;BME280;7220;49.450;11.052;2024-03-17T12:55:56;98636.19;;;17.13;49.71
14273;BME280;7220;49.450;11.052;2024-03-17T13:00:22;98632.75;;;17.35;48.13
14273;BME280;7220;49.450;11.052;2024-03-17T13:04:32;98626.31;;;17.13;48.64
14273;BME280;7220;49.450;11.052;2024-03-17T13:08:33;98623.69;;;16.87;48.64
14273;BME280;7220;49.450;11.052;2024-03-17T13:12:34;98633.06;;;16.69;48.94
14273;BME280;7220;49.450;11.052;2024-03-17T13:16:34;98624.94;;;16.58;50.02
14273;BME280;7220;49.450;11.052;2024-03-17T13:20:35;98626.56;;;16.21;50.15
14273;BME280;7220;49.450;11.052;2024-03-17T13:24:35;98620.22;;;15.97;50.79
14273;BME280;7220;49.450;11.052;2024-03-17T13:28:36;98618.31;;;15.99;51.10
14273;BME280;7220;49.450;11.052;2024-03-17T13:32:36;98615.66;;;15.58;51.25
14273;BME280;7220;49.450;11.052;2024-03-17T13:36:37;98616.41;;;15.60;52.58
14273;BME280;7220;49.450;11.052;2024-03-17T13:40:39;98624.31;;;15.49;52.99
14273;BME280;7220;49.450;11.052;2024-03-17T13:44:40;98613.81;;;15.46;51.86
14273;BME280;7220;49.450;11.052;2024-03-17T13:48:40;98611.44;;;15.41;52.85
14273;BME280;7220;49.450;11.052;2024-03-17T13:52:42;98610.03;;;15.36;53.20
14273;BME280;7220;49.450;11.052;2024-03-17T13:56:46;98603.56;;;15.66;52.43
14273;BME280;7220;49.450;11.052;2024-03-17T14:00:47;98600.31;;;16.01;51.77
14273;BME280;7220;49.450;11.052;2024-03-17T14:04:48;98590.09;;;16.06;51.01
14273;BME280;7220;49.450;11.052;2024-03-17T14:08:48;98598.59;;;16.00;51.16
14273;BME280;7220;49.450;11.052;2024-03-17T14:12:48;98586.78;;;15.89;50.96
14273;BME280;7220;49.450;11.052;2024-03-17T14:16:49;98583.22;;;15.76;51.49
14273;BME280;7220;49.450;11.052;2024-03-17T14:20:50;98585.84;;;15.50;51.80
14273;BME280;7220;49.450;11.052;2024-03-17T14:24:53;98593.63;;;15.27;52.37
14273;BME280;7220;49.450;11.052;2024-03-17T14:28:53;98599.22;;;15.10;52.09
14273;BME280;7220;49.450;11.052;2024-03-17T14:32:54;98578.28;;;14.89;53.18
14273;BME280;7220;49.450;11.052;2024-03-17T14:36:55;98576.09;;;14.81;53.67
14273;BME280;7220;49.450;11.052;2024-03-17T14:40:55;98573.63;;;14.64;54.20
14273;BME280;7220;49.450;11.052;2024-03-17T14:44:56;98570.13;;;14.49;54.66
14273;BME280;7220;49.450;11.052;2024-03-17T14:48:56;98556.84;;;14.47;54.96
14273;BME280;7220;49.450;11.052;2024-03-17T14:52:57;98551.63;;;14.31;55.49
14273;BME280;7220;49.450;11.052;2024-03-17T14:56:57;98547.81;;;14.21;56.06
14273;BME280;7220;49.450;11.052;2024-03-17T15:00:58;98551.81;;;14.14;55.96
14273;BME280;7220;49.450;11.052;2024-03-17T15:04:58;98544.38;;;14.04;56.62
14273;BME280;7220;49.450;11.052;2024-03-17T15:08:59;98544.75;;;13.98;57.16
14273;BME280;7220;49.450;11.052;2024-03-17T15:13:00;98546.88;;;13.93;57.34
14273;BME280;7220;49.450;11.052;2024-03-17T15:17:01;98548.00;;;13.89;57.92
14273;BME280;7220;49.450;11.052;2024-03-17T15:21:01;98538.53;;;13.83;57.63
14273;BME280;7220;49.450;11.052;2024-03-17T15:25:02;98538.94;;;13.77;58.13
14273;BME280;7220;49.450;11.052;2024-03-17T15:29:05;98539.22;;;13.72;58.64
14273;BME280;7220;49.450;11.052;2024-03-17T15:33:05;98535.59;;;13.73;58.21
14273;BME280;7220;49.450;11.052;2024-03-17T15:37:06;98536.53;;;13.72;58.88
14273;BME280;7220;49.450;11.052;2024-03-17T15:41:09;98535.88;;;13.69;59.48
14273;BME280;7220;49.450;11.052;2024-03-17T15:45:13;98529.84;;;13.65;59.55
14273;BME280;7220;49.450;11.052;2024-03-17T15:49:14;98530.81;;;13.64;59.43
14273;BME280;7220;49.450;11.052;2024-03-17T15:53:15;98536.34;;;13.61;59.35
14273;BME280;7220;49.450;11.052;2024-03-17T15:57:15;98542.03;;;13.55;58.86
14273;BME280;7220;49.450;11.052;2024-03-17T16:01:15;98517.72;;;13.45;58.88
14273;BME280;7220;49.450;11.052;2024-03-17T16:05:19;98525.06;;;13.41;59.12
14273;BME280;7220;49.450;11.052;2024-03-17T16:09:19;98521.00;;;13.34;58.90
14273;BME280;7220;49.450;11.052;2024-03-17T16:13:21;98522.84;;;13.34;59.28
14273;BME280;7220;49.450;11.052;2024-03-17T16:17:29;98520.78;;;13.23;59.56
14273;BME280;7220;49.450;11.052;2024-03-17T16:21:34;98527.44;;;13.16;59.57
14273;BME280;7220;49.450;11.052;2024-03-17T16:25:34;98525.97;;;13.10;59.64
14273;BME280;7220;49.450;11.052;2024-03-17T16:29:35;98512.44;;;12.99;60.62
14273;BME280;7220;49.450;11.052;2024-03-17T16:33:36;98519.66;;;12.97;60.55
14273;BME280;7220;49.450;11.052;2024-03-17T16:37:37;98519.06;;;12.91;60.43
14273;BME280;7220;49.450;11.052;2024-03-17T16:41:38;98532.00;;;12.83;60.23
14273;BME280;7220;49.450;11.052;2024-03-17T16:45:44;98528.81;;;12.76;60.59
14273;BME280;7220;49.450;11.052;2024-03-17T16:49:47;98535.59;;;12.66;60.61
14273;BME280;7220;49.450;11.052;2024-03-17T16:53:48;98547.56;;;12.59;61.30
14273;BME280;7220;49.450;11.052;2024-03-17T16:57:49;98540.03;;;12.51;61.77
14273;BME280;7220;49.450;11.052;2024-03-17T17:01:50;98547.41;;;12.46;61.45
14273;BME280;7220;49.450;11.052;2024-03-17T17:05:50;98545.16;;;12.38;62.28
14273;BME280;7220;49.450;11.052;2024-03-17T17:09:51;98545.28;;;12.37;62.63
14273;BME280;7220;49.450;11.052;2024-03-17T17:13:51;98544.84;;;12.28;62.82
14273;BME280;7220;49.450;11.052;2024-03-17T17:17:52;98535.38;;;12.23;62.66
14273;BME280;7220;49.450;11.052;2024-03-17T17:21:57;98538.28;;;12.18;63.63
14273;BME280;7220;49.450;11.052;2024-03-17T17:25:57;98536.81;;;12.12;64.21
14273;BME280;7220;49.450;11.052;2024-03-17T17:29:58;98536.31;;;12.06;64.26
14273;BME280;7220;49.450;11.052;2024-03-17T17:33:59;98538.44;;;11.99;64.22
14273;BME280;7220;49.450;11.052;2024-03-17T17:38:02;98522.91;;;11.90;64.85
14273;BME280;7220;49.450;11.052;2024-03-17T17:42:03;98529.97;;;11.91;64.09
14273;BME280;7220;49.450;11.052;2024-03-17T17:46:07;98525.13;;;11.81;65.16
14273;BME280;7220;49.450;11.052;2024-03-17T17:50:09;98526.16;;;11.79;65.24
14273;BME280;7220;49.450;11.052;2024-03-17T17:54:09;98528.03;;;11.77;65.84
14273;BME280;7220;49.450;11.052;2024-03-17T17:58:10;98520.53;;;11.67;66.11
14273;BME280;7220;49.450;11.052;2024-03-17T18:02:11;98514.25;;;11.68;66.04
14273;BME280;7220;49.450;11.052;2024-03-17T18:06:12;98508.34;;;11.63;65.91
14273;BME280;7220;49.450;11.052;2024-03-17T18:10:12;98511.16;;;11.60;65.97
14273;BME280;7220;49.450;11.052;2024-03-17T18:14:13;98517.81;;;11.51;66.57
14273;BME280;7220;49.450;11.052;2024-03-17T18:18:14;98524.22;;;11.47;67.02
14273;BME280;7220;49.450;11.052;2024-03-17T18:22:14;98515.72;;;11.41;66.13
14273;BME280;7220;49.450;11.052;2024-03-17T18:26:15;98509.75;;;11.35;66.75
14273;BME280;7220;49.450;11.052;2024-03-17T18:30:15;98511.03;;;11.28;66.81
14273;BME280;7220;49.450;11.052;2024-03-17T18:34:16;98513.94;;;11.24;67.05
14273;BME280;7220;49.450;11.052;2024-03-17T18:38:17;98515.81;;;11.22;67.69
14273;BME280;7220;49.450;11.052;2024-03-17T18:42:18;98531.94;;;11.18;67.50
14273;BME280;7220;49.450;11.052;2024-03-17T18:46:19;98532.06;;;11.15;68.10
14273;BME280;7220;49.450;11.052;2024-03-17T18:50:21;98529.59;;;11.12;67.55
14273;BME280;7220;49.450;11.052;2024-03-17T18:54:22;98532.41;;;11.09;68.66
14273;BME280;7220;49.450;11.052;2024-03-17T18:58:22;98532.72;;;11.03;67.92
14273;BME280;7220;49.450;11.052;2024-03-17T19:02:23;98525.03;;;10.97;68.19
14273;BME280;7220;49.450;11.052;2024-03-17T19:06:25;98521.69;;;10.93;68.83
14273;BME280;7220;49.450;11.052;2024-03-17T19:10:28;98513.84;;;10.90;68.96
14273;BME280;7220;49.450;11.052;2024-03-17T19:14:28;98513.94;;;10.88;68.31
14273;BME280;7220;49.450;11.052;2024-03-17T19:18:29;98516.72;;;10.85;69.43
14273;BME280;7220;49.450;11.052;2024-03-17T19:22:29;98518.78;;;10.80;68.41
14273;BME280;7220;49.450;11.052;2024-03-17T19:26:34;98524.31;;;10.76;68.55
14273;BME280;7220;49.450;11.052;2024-03-17T19:30:35;98518.28;;;10.72;69.32
14273;BME280;7220;49.450;11.052;2024-03-17T19:34:35;98525.59;;;10.67;69.51
14273;BME280;7220;49.450;11.052;2024-03-17T19:38:38;98511.56;;;10.65;69.32
14273;BME280;7220;49.450;11.052;2024-03-17T19:42:48;98512.78;;;10.57;69.58
14273;BME280;7220;49.450;11.052;2024-03-17T19:46:48;98518.03;;;10.59;70.10
14273;BME280;7220;49.450;11.052;2024-03-17T19:50:49;98517.31;;;10.55;70.25
14273;BME280;7220;49.450;11.052;2024-03-17T19:54:50;98506.09;;;10.49;69.74
14273;BME280;7220;49.450;11.052;2024-03-17T19:58:52;98510.56;;;10.48;71.00
14273;BME280;7220;49.450;11.052;2024-03-17T20:02:53;98504.69;;;10.41;69.91
14273;BME280;7220;49.450;11.052;2024-03-17T20:06:56;98505.69;;;10.39;71.24
14273;BME280;7220;49.450;11.052;2024-03-17T20:10:58;98509.38;;;10.35;70.32
14273;BME280;7220;49.450;11.052;2024-03-17T20:14:58;98510.56;;;10.29;70.62
14273;BME280;7220;49.450;11.052;2024-03-17T20:18:59;98506.19;;;10.28;71.33
14273;BME280;7220;49.450;11.052;2024-03-17T20:22:59;98501.09;;;10.23;71.47
14273;BME280;7220;49.450;11.052;2024-03-17T20:27:01;98514.59;;;10.19;72.15
14273;BME280;7220;49.450;11.052;2024-03-17T20:31:02;98503.25;;;10.15;72.35
14273;BME280;7220;49.450;11.052;2024-03-17T20:35:03;98498.16;;;10.10;72.86
14273;BME280;7220;49.450;11.052;2024-03-17T20:39:04;98483.22;;;10.08;72.72
14273;BME280;7220;49.450;11.052;2024-03-17T20:43:04;98479.69;;;10.07;72.87
14273;BME280;7220;49.450;11.052;2024-03-17T20:47:05;98466.72;;;10.01;73.30
14273;BME280;7220;49.450;11.052;2024-03-17T20:51:05;98482.56;;;10.03;73.89
14273;BME280;7220;49.450;11.052;2024-03-17T20:55:09;98483.56;;;10.00;73.32
14273;BME280;7220;49.450;11.052;2024-03-17T20:59:09;98480.13;;;9.98;74.15
14273;BME280;7220;49.450;11.052;2024-03-17T21:03:11;98461.75;;;9.93;73.79
14273;BME280;7220;49.450;11.052;2024-03-17T21:07:11;98472.38;;;9.93;73.84
14273;BME280;7220;49.450;11.052;2024-03-17T21:11:14;98476.91;;;9.91;74.64
14273;BME280;7220;49.450;11.052;2024-03-17T21:15:16;98462.97;;;9.86;74.40
14273;BME280;7220;49.450;11.052;2024-03-17T21:19:17;98473.66;;;9.85;74.89
14273;BME280;7220;49.450;11.052;2024-03-17T21:23:19;98450.88;;;9.81;74.98